Time;durP1;ratioP1;P1;durP2;ratioP2;P2;SDS_P1;SDS_P2;PMS_P1;PMS_P2;Temp;Humidity;BMP_temperature;BMP_pressure;BME280_temperature;BME280_humidity;BME280_pressure;Samples;Min_cycle;Max_cycle;Signal;HPM_P1;HPM_P2
2022/11/23 00:00:17;;;;;;;0.17;0.17;;;;;;;5.45;100.00;98778.84;5091120;28;20178;-80
2022/11/23 00:02:42;;;;;;;0.00;0.00;;;;;;;5.36;100.00;98766.13;5091084;28;20173;-80
2022/11/23 00:05:07;;;;;;;0.00;0.00;;;;;;;5.31;100.00;98773.59;5091349;28;20189;-80
2022/11/23 00:07:33;;;;;;;0.30;0.30;;;;;;;5.35;100.00;98777.25;5091134;28;20193;-80
2022/11/23 00:09:58;;;;;;;3.87;0.20;;;;;;;5.33;100.00;98779.47;5091056;28;20197;-80
2022/11/23 00:12:23;;;;;;;0.00;0.00;;;;;;;5.29;100.00;98781.22;5091037;28;20540;-80
2022/11/23 00:14:49;;;;;;;0.40;0.40;;;;;;;5.30;100.00;98777.41;5090754;28;20173;-80
2022/11/23 00:17:14;;;;;;;0.00;0.00;;;;;;;5.28;100.00;98775.03;5090767;28;20180;-80
2022/11/23 00:19:39;;;;;;;0.33;0.33;;;;;;;5.23;100.00;98771.69;5090975;28;20303;-80
2022/11/23 00:22:04;;;;;;;0.00;0.00;;;;;;;5.11;100.00;98775.00;5090672;28;20201;-80
2022/11/23 00:24:30;;;;;;;0.00;0.00;;;;;;;5.10;100.00;98788.84;5089302;28;20652;-80
2022/11/23 00:26:55;;;;;;;0.00;0.00;;;;;;;5.06;100.00;98794.91;5091213;28;20303;-80
2022/11/23 00:29:20;;;;;;;1.40;0.83;;;;;;;5.12;100.00;98795.53;5089516;28;20667;-80
2022/11/23 00:31:45;;;;;;;0.00;0.00;;;;;;;5.18;100.00;98796.97;5090943;28;20295;-79
2022/11/23 00:34:11;;;;;;;0.00;0.00;;;;;;;5.13;100.00;98801.75;5077718;28;20181;-80
2022/11/23 00:36:36;;;;;;;0.17;0.17;;;;;;;5.08;100.00;98797.28;5070728;28;20661;-80
2022/11/23 00:39:02;;;;;;;0.00;0.00;;;;;;;5.08;100.00;98789.16;5069314;28;20676;-81
2022/11/23 00:41:27;;;;;;;0.00;0.00;;;;;;;4.96;100.00;98792.50;5070837;28;20584;-80
2022/11/23 00:43:53;;;;;;;3.60;2.43;;;;;;;5.05;100.00;98787.06;5069032;28;20635;-80
2022/11/23 00:46:23;;;;;;;0.00;0.00;;;;;;;4.93;100.00;98781.50;5070459;28;20178;-81
2022/11/23 00:48:50;;;;;;;0.00;0.00;;;;;;;4.93;100.00;98789.63;5070625;28;20797;-80
2022/11/23 00:51:22;;;;;;;0.00;0.00;;;;;;;5.00;100.00;98787.22;5070600;28;20163;-80
2022/11/23 00:53:49;;;;;;;0.00;0.00;;;;;;;5.01;100.00;98789.63;5070355;28;20183;-81
2022/11/23 00:56:15;;;;;;;3.93;3.07;;;;;;;4.94;100.00;98794.72;5068917;28;20583;-80
2022/11/23 00:58:41;;;;;;;4.13;3.40;;;;;;;4.90;100.00;98782.09;5070349;28;20803;-80
2022/11/23 01:01:10;;;;;;;0.00;0.00;;;;;;;4.88;100.00;98782.44;5069093;28;20289;-80
2022/11/23 01:03:41;;;;;;;0.00;0.00;;;;;;;4.62;100.00;98778.84;5070037;28;20178;-81
2022/11/23 01:06:12;;;;;;;0.00;0.00;;;;;;;4.61;100.00;98775.34;5070394;28;20170;-81
2022/11/23 01:08:38;;;;;;;0.00;0.00;;;;;;;4.72;100.00;98767.75;5068877;28;20201;-80
2022/11/23 01:11:07;;;;;;;0.00;0.00;;;;;;;4.47;100.00;98759.22;5070430;28;20259;-81
2022/11/23 01:13:32;;;;;;;0.00;0.00;;;;;;;4.48;100.00;98765.41;5070062;28;20171;-81
2022/11/23 01:15:58;;;;;;;0.97;0.97;;;;;;;4.41;100.00;98756.97;5070305;28;20502;-81
2022/11/23 01:18:24;;;;;;;0.00;0.00;;;;;;;4.37;100.00;98761.41;5070220;28;20201;-80
2022/11/23 01:20:50;;;;;;;0.00;0.00;;;;;;;4.36;100.00;98759.84;5069113;28;20181;-80
2022/11/23 01:23:16;;;;;;;0.00;0.00;;;;;;;4.43;100.00;98760.97;5068648;28;20224;-80
2022/11/23 01:25:41;;;;;;;0.63;0.63;;;;;;;4.47;100.00;98772.75;5070089;28;20207;-80
2022/11/23 01:28:06;;;;;;;0.00;0.00;;;;;;;4.37;100.00;98778.44;5070266;28;20628;-80
2022/11/23 01:30:33;;;;;;;0.53;0.20;;;;;;;4.11;100.00;98778.31;5070129;28;20174;-81
2022/11/23 01:32:59;;;;;;;0.00;0.00;;;;;;;4.00;100.00;98787.75;5070368;28;20274;-80
2022/11/23 01:35:24;;;;;;;0.00;0.00;;;;;;;3.95;100.00;98779.81;5073484;28;20494;-81
2022/11/23 01:37:49;;;;;;;0.00;0.00;;;;;;;3.88;100.00;98784.81;5073633;28;20236;-81
2022/11/23 01:40:15;;;;;;;0.07;0.07;;;;;;;3.86;100.00;98782.44;5071931;28;20205;-80
2022/11/23 01:42:53;;;;;;;0.00;0.00;;;;;;;3.84;100.00;98789.25;5072208;28;20189;-80
2022/11/23 01:45:57;;;;;;;0.30;0.30;;;;;;;3.72;100.00;98789.81;5073392;28;20167;-80
2022/11/23 01:48:31;;;;;;;0.00;0.00;;;;;;;3.72;100.00;98783.59;5071807;28;20194;-80
2022/11/23 01:50:59;;;;;;;0.00;0.00;;;;;;;3.86;100.00;98784.34;5073497;28;20480;-81
2022/11/23 01:53:26;;;;;;;0.00;0.00;;;;;;;4.01;100.00;98786.66;5073079;28;20312;-80
2022/11/23 01:55:54;;;;;;;20.77;0.83;;;;;;;4.23;100.00;98796.66;5071781;28;20619;-81
2022/11/23 01:58:23;;;;;;;0.10;0.10;;;;;;;4.43;100.00;98803.44;5071639;28;20230;-81
2022/11/23 02:00:48;;;;;;;0.00;0.00;;;;;;;4.53;100.00;98799.66;5073013;28;20175;-80
2022/11/23 02:03:14;;;;;;;0.00;0.00;;;;;;;4.53;100.00;98795.03;5071467;28;20182;-80
2022/11/23 02:05:44;;;;;;;0.00;0.00;;;;;;;4.53;100.00;98789.63;5072769;28;20567;-80
2022/11/23 02:08:10;;;;;;;0.20;0.20;;;;;;;4.51;100.00;98793.78;5073051;28;20210;-80
2022/11/23 02:10:36;;;;;;;0.00;0.00;;;;;;;4.54;100.00;98791.22;5072791;28;20768;-80
2022/11/23 02:13:06;;;;;;;0.10;0.10;;;;;;;4.57;100.00;98795.22;5072733;28;20261;-80
2022/11/23 02:15:34;;;;;;;0.30;0.30;;;;;;;4.60;100.00;98797.28;5072881;28;20528;-81
2022/11/23 02:18:02;;;;;;;0.00;0.00;;;;;;;4.55;100.00;98790.13;5071325;28;20244;-81
2022/11/23 02:20:27;;;;;;;0.00;0.00;;;;;;;4.38;100.00;98792.75;5072823;28;20660;-81
2022/11/23 02:23:31;;;;;;;0.00;0.00;;;;;;;4.35;100.00;98802.28;5072436;28;20171;-81
2022/11/23 02:26:01;;;;;;;0.00;0.00;;;;;;;3.99;100.00;98805.09;5070187;28;20277;-81
2022/11/23 02:28:31;;;;;;;0.00;0.00;;;;;;;4.19;100.00;98798.34;5072401;28;20170;-81
2022/11/23 02:30:57;;;;;;;0.00;0.00;;;;;;;4.33;100.00;98795.56;5072609;28;20175;-81
2022/11/23 02:33:24;;;;;;;0.00;0.00;;;;;;;4.23;100.00;98793.16;5072433;28;20174;-81
2022/11/23 02:35:52;;;;;;;0.10;0.10;;;;;;;4.23;100.00;98798.56;5072176;28;20170;-81
2022/11/23 02:38:18;;;;;;;0.00;0.00;;;;;;;4.13;100.00;98783.41;5072658;28;20206;-81
2022/11/23 02:40:44;;;;;;;0.00;0.00;;;;;;;4.30;100.00;98794.28;5072154;28;20183;-81
2022/11/23 02:43:10;;;;;;;0.00;0.00;;;;;;;4.35;100.00;98802.28;5089059;28;20182;-80
2022/11/23 02:45:42;;;;;;;0.00;0.00;;;;;;;4.24;100.00;98786.63;5092093;28;20196;-80
2022/11/23 02:48:07;;;;;;;0.00;0.00;;;;;;;4.14;100.00;98791.19;5092455;28;20205;-81
2022/11/23 02:50:32;;;;;;;0.00;0.00;;;;;;;4.22;100.00;98784.25;5092390;28;20189;-81
2022/11/23 02:52:58;;;;;;;0.00;0.00;;;;;;;4.25;100.00;98785.53;5091874;28;20751;-81
2022/11/23 02:55:23;;;;;;;0.20;0.20;;;;;;;4.40;100.00;98782.41;5091991;28;20643;-80
2022/11/23 02:57:49;;;;;;;0.20;0.20;;;;;;;4.49;100.00;98775.16;5092106;28;20289;-81
2022/11/23 03:00:15;;;;;;;0.00;0.00;;;;;;;4.56;100.00;98780.91;5092144;28;20253;-81
2022/11/23 03:02:40;;;;;;;0.00;0.00;;;;;;;4.52;100.00;98787.25;5091875;28;20220;-80
2022/11/23 03:05:06;;;;;;;0.00;0.00;;;;;;;4.68;100.00;98785.72;5090413;28;20340;-80
2022/11/23 03:07:31;;;;;;;0.00;0.00;;;;;;;4.69;100.00;98782.69;5090002;28;20189;-80
2022/11/23 03:09:56;;;;;;;0.00;0.00;;;;;;;4.77;100.00;98781.13;5091763;28;20186;-80
2022/11/23 03:12:22;;;;;;;0.00;0.00;;;;;;;4.84;100.00;98791.50;5091945;28;20181;-80
2022/11/23 03:14:47;;;;;;;0.00;0.00;;;;;;;4.97;100.00;98785.16;5091628;28;20177;-81
2022/11/23 03:17:12;;;;;;;0.00;0.00;;;;;;;5.11;100.00;98779.63;5091728;28;20381;-81
2022/11/23 03:19:38;;;;;;;0.00;0.00;;;;;;;5.22;100.00;98779.00;5091709;28;20181;-80
2022/11/23 03:22:03;;;;;;;0.00;0.00;;;;;;;5.42;100.00;98782.19;5091523;28;20223;-81
2022/11/23 03:24:28;;;;;;;0.10;0.10;;;;;;;5.54;100.00;98787.78;5089833;28;20227;-80
2022/11/23 03:26:54;;;;;;;4.33;1.40;;;;;;;5.73;100.00;98790.97;5091560;28;20227;-80
2022/11/23 03:29:19;;;;;;;0.37;0.07;;;;;;;5.87;100.00;98782.66;5091584;28;20177;-79
2022/11/23 03:31:44;;;;;;;0.00;0.00;;;;;;;5.95;100.00;98796.25;5091540;28;20174;-79
2022/11/23 03:34:10;;;;;;;0.00;0.00;;;;;;;5.97;100.00;98793.19;5093459;28;20166;-80
2022/11/23 03:36:35;;;;;;;8.70;0.50;;;;;;;5.95;100.00;98790.03;5091295;28;20178;-79
2022/11/23 03:39:00;;;;;;;0.20;0.20;;;;;;;5.94;100.00;98791.94;5091476;28;20292;-79
2022/11/23 03:41:26;;;;;;;0.10;0.10;;;;;;;6.05;100.00;98786.94;5091267;28;20179;-79
2022/11/23 03:43:51;;;;;;;0.00;0.00;;;;;;;6.03;100.00;98786.47;5089651;28;20247;-79
2022/11/23 03:46:17;;;;;;;0.00;0.00;;;;;;;6.03;100.00;98788.41;5091060;28;20562;-80
2022/11/23 03:48:42;;;;;;;0.77;0.77;;;;;;;6.05;100.00;98788.88;5089805;28;20209;-80
2022/11/23 03:51:07;;;;;;;0.37;0.37;;;;;;;6.08;100.00;98788.25;5091125;28;20188;-79
2022/11/23 03:53:33;;;;;;;0.20;0.20;;;;;;;6.08;100.00;98788.25;5090790;28;20174;-80
2022/11/23 03:55:58;;;;;;;0.40;0.40;;;;;;;6.07;100.00;98792.84;5090216;28;20185;-79
2022/11/23 03:58:23;;;;;;;0.20;0.20;;;;;;;6.03;100.00;98788.41;5090807;28;20650;-80
2022/11/23 04:00:49;;;;;;;0.03;0.03;;;;;;;6.04;100.00;98792.69;5091169;28;20178;-80
2022/11/23 04:03:14;;;;;;;0.00;0.00;;;;;;;5.95;100.00;98790.03;5090997;28;20169;-79
2022/11/23 04:05:39;;;;;;;0.00;0.00;;;;;;;6.01;100.00;98786.00;5089567;28;20205;-80
2022/11/23 04:08:05;;;;;;;0.23;0.23;;;;;;;6.08;100.00;98788.25;5090804;28;20523;-80
2022/11/23 04:10:30;;;;;;;0.03;0.03;;;;;;;6.06;100.00;98793.16;5090856;28;20177;-79
2022/11/23 04:12:55;;;;;;;0.00;0.00;;;;;;;5.98;100.00;98800.22;5090887;28;20182;-80
2022/11/23 04:15:20;;;;;;;0.00;0.00;;;;;;;5.92;100.00;98794.16;5090701;28;20174;-80
2022/11/23 04:17:46;;;;;;;0.40;0.40;;;;;;;5.92;100.00;98802.28;5090456;28;20205;-80
2022/11/23 04:20:12;;;;;;;0.77;0.77;;;;;;;5.99;100.00;98792.88;5089488;28;20178;-80
2022/11/23 04:22:37;;;;;;;0.33;0.33;;;;;;;5.96;100.00;98797.81;5090295;28;20244;-80
2022/11/23 04:25:03;;;;;;;0.50;0.10;;;;;;;5.95;100.00;98785.41;5090690;28;20205;-80
2022/11/23 04:27:28;;;;;;;2.80;0.40;;;;;;;5.91;100.00;98787.13;5090565;28;20198;-80
2022/11/23 04:29:53;;;;;;;0.00;0.00;;;;;;;5.95;100.00;98785.41;5090822;28;20624;-79
2022/11/23 04:32:19;;;;;;;1.50;0.37;;;;;;;5.93;100.00;98801.19;5090508;28;20566;-80
2022/11/23 04:34:44;;;;;;;0.10;0.10;;;;;;;5.92;100.00;98786.00;5090217;28;20170;-80
2022/11/23 04:37:10;;;;;;;0.00;0.00;;;;;;;5.94;100.00;98791.13;5090330;28;20248;-79
2022/11/23 04:39:36;;;;;;;0.07;0.07;;;;;;;5.84;100.00;98792.22;5090659;28;20198;-80
2022/11/23 04:42:01;;;;;;;0.10;0.10;;;;;;;5.82;100.00;98793.66;5090444;28;20166;-80
2022/11/23 04:44:26;;;;;;;0.10;0.10;;;;;;;5.87;100.00;98796.19;5090208;28;20265;-81
2022/11/23 04:46:51;;;;;;;0.00;0.00;;;;;;;5.81;100.00;98805.63;5090383;28;20166;-79
2022/11/23 04:49:17;;;;;;;0.00;0.00;;;;;;;5.72;100.00;98796.69;5089068;28;20173;-80
2022/11/23 04:51:42;;;;;;;0.23;0.23;;;;;;;5.83;100.00;98797.97;5090552;28;20592;-79
2022/11/23 04:54:08;;;;;;;0.23;0.23;;;;;;;5.83;100.00;98806.09;5090155;28;20178;-80
2022/11/23 04:56:33;;;;;;;4.80;1.13;;;;;;;5.78;100.00;98798.91;5091528;28;20193;-80
2022/11/23 04:58:58;;;;;;;0.00;0.00;;;;;;;5.72;100.00;98791.28;5096138;28;20297;-80
2022/11/23 05:01:24;;;;;;;0.00;0.00;;;;;;;5.72;100.00;98791.28;5091801;28;20174;-81
2022/11/23 05:03:49;;;;;;;0.63;0.63;;;;;;;5.77;100.00;98797.31;5090670;28;20628;-80
2022/11/23 05:06:14;;;;;;;0.37;0.37;;;;;;;5.84;100.00;98794.94;5090453;28;20170;-81
2022/11/23 05:08:41;;;;;;;9.50;0.97;;;;;;;5.87;100.00;98796.19;5093509;28;20207;-81
2022/11/23 05:11:06;;;;;;;0.00;0.00;;;;;;;5.76;100.00;98793.00;5094804;28;20205;-81
2022/11/23 05:13:32;;;;;;;0.23;0.23;;;;;;;5.85;100.00;98793.03;5094402;28;20660;-81
2022/11/23 05:15:57;;;;;;;0.00;0.00;;;;;;;5.80;100.00;98795.91;5093133;28;20186;-80
2022/11/23 05:18:22;;;;;;;0.00;0.00;;;;;;;5.77;100.00;98808.16;5094718;28;20554;-80
2022/11/23 05:20:47;;;;;;;0.00;0.00;;;;;;;5.79;100.00;98803.25;5093970;28;20181;-80
2022/11/23 05:23:13;;;;;;;0.00;0.00;;;;;;;5.83;100.00;98808.81;5094273;28;20177;-80
2022/11/23 05:25:38;;;;;;;10.10;0.50;;;;;;;5.97;100.00;98812.16;5093665;28;20591;-80
2022/11/23 05:28:04;;;;;;;0.10;0.10;;;;;;;5.93;100.00;98803.06;5094147;28;20177;-80
2022/11/23 05:30:29;;;;;;;0.00;0.00;;;;;;;5.89;100.00;98812.94;5092507;28;20173;-81
2022/11/23 05:33:00;;;;;;;0.27;0.27;;;;;;;5.86;100.00;98811.66;5093560;28;20173;-80
2022/11/23 05:35:25;;;;;;;0.00;0.00;;;;;;;5.89;100.00;98802.09;5093457;28;20541;-81
2022/11/23 05:37:51;;;;;;;0.00;0.00;;;;;;;5.89;100.00;98807.50;5093616;28;20216;-80
2022/11/23 05:40:17;;;;;;;11.27;0.97;;;;;;;5.92;100.00;98813.13;5093650;28;20248;-81
2022/11/23 05:42:42;;;;;;;2.93;0.50;;;;;;;6.00;100.00;98818.88;5092051;28;20182;-79
2022/11/23 05:45:08;;;;;;;3.87;1.40;;;;;;;6.06;100.00;98812.16;5093293;28;20240;-81
2022/11/23 05:47:33;;;;;;;1.27;1.13;;;;;;;6.05;100.00;98821.41;5093333;28;20187;-80
2022/11/23 05:49:58;;;;;;;0.37;0.37;;;;;;;6.11;100.00;98822.84;5093194;28;20182;-80
2022/11/23 05:52:25;;;;;;;0.00;0.00;;;;;;;6.12;100.00;98819.00;5093201;28;20632;-81
2022/11/23 05:54:50;;;;;;;0.30;0.30;;;;;;;6.17;100.00;98818.81;5092944;28;20551;-81
2022/11/23 05:57:16;;;;;;;0.40;0.40;;;;;;;6.22;100.00;98822.19;5093092;28;20173;-81
2022/11/23 05:59:42;;;;;;;0.00;0.00;;;;;;;6.22;100.00;98826.78;5093558;28;20197;-81
2022/11/23 06:02:07;;;;;;;0.07;0.07;;;;;;;6.22;100.00;98824.91;5092978;28;20769;-81
2022/11/23 06:04:32;;;;;;;1.60;0.07;;;;;;;6.28;100.00;98830.13;5092717;28;20170;-80
2022/11/23 06:06:59;;;;;;;0.00;0.00;;;;;;;6.29;100.00;98821.69;5091629;28;20177;-81
2022/11/23 06:09:26;;;;;;;0.00;0.00;;;;;;;6.28;100.00;98819.28;5092729;28;20182;-81
2022/11/23 06:11:51;;;;;;;3.40;0.93;;;;;;;6.33;100.00;98819.91;5092964;28;20174;-80
2022/11/23 06:14:17;;;;;;;0.00;0.00;;;;;;;6.38;100.00;98832.53;5091301;28;20824;-81
2022/11/23 06:16:42;;;;;;;0.00;0.00;;;;;;;6.34;100.00;98820.69;5092746;28;20180;-80
2022/11/23 06:19:07;;;;;;;0.07;0.07;;;;;;;6.34;100.00;98829.63;5092426;28;20841;-81
2022/11/23 06:21:32;;;;;;;0.00;0.00;;;;;;;6.33;100.00;98830.75;5093052;28;20174;-80
2022/11/23 06:23:58;;;;;;;8.63;0.90;;;;;;;6.35;100.00;98831.22;5092743;28;20184;-79
2022/11/23 06:26:24;;;;;;;1.97;1.43;;;;;;;6.33;100.00;98835.38;5091449;28;20170;-80
2022/11/23 06:28:50;;;;;;;0.70;0.37;;;;;;;6.39;100.00;98836.81;5092066;28;20530;-79
2022/11/23 06:31:15;;;;;;;10.83;0.67;;;;;;;6.47;100.00;98834.06;5093325;28;20201;-80
2022/11/23 06:33:41;;;;;;;0.00;0.00;;;;;;;6.53;100.00;98838.22;5092881;28;20198;-79
2022/11/23 06:36:09;;;;;;;0.00;0.00;;;;;;;6.61;100.00;98843.94;5093606;28;20185;-79
2022/11/23 06:38:34;;;;;;;0.73;0.60;;;;;;;6.66;100.00;98849.19;5093223;28;20221;-79
2022/11/23 06:41:00;;;;;;;0.30;0.30;;;;;;;6.66;100.00;98850.00;5091241;28;20602;-79
2022/11/23 06:43:26;;;;;;;2.80;0.80;;;;;;;6.68;100.00;98860.53;5091042;28;20174;-80
2022/11/23 06:45:52;;;;;;;0.20;0.20;;;;;;;6.68;100.00;98858.59;5092399;28;20178;-79
2022/11/23 06:48:18;;;;;;;0.10;0.10;;;;;;;6.63;100.00;98860.69;5091292;28;20181;-80
2022/11/23 06:50:43;;;;;;;0.40;0.40;;;;;;;6.57;100.00;98877.13;5092495;28;20231;-80
2022/11/23 06:53:11;;;;;;;0.37;0.20;;;;;;;6.59;100.00;98862.44;5092085;28;20656;-80
2022/11/23 06:55:36;;;;;;;0.10;0.10;;;;;;;6.52;100.00;98866.47;5090971;28;20184;-79
2022/11/23 06:58:01;;;;;;;16.63;1.77;;;;;;;6.47;100.00;98865.81;5090929;28;20202;-80
2022/11/23 07:00:27;;;;;;;0.10;0.10;;;;;;;6.43;100.00;98871.09;5092463;28;20174;-79
2022/11/23 07:02:54;;;;;;;0.00;0.00;;;;;;;6.46;100.00;98873.16;5092092;28;20176;-80
2022/11/23 07:05:20;;;;;;;0.87;0.87;;;;;;;6.50;100.00;98876.03;5090738;28;20173;-79
2022/11/23 07:07:45;;;;;;;0.00;0.00;;;;;;;6.47;100.00;98872.06;5090582;28;20181;-79
2022/11/23 07:10:11;;;;;;;0.03;0.03;;;;;;;6.45;100.00;98881.63;5090761;28;20170;-80
2022/11/23 07:12:36;;;;;;;0.60;0.60;;;;;;;6.40;100.00;98870.97;5091757;28;20170;-79
2022/11/23 07:15:01;;;;;;;0.00;0.00;;;;;;;6.45;100.00;98878.91;5091980;28;20258;-79
2022/11/23 07:17:27;;;;;;;0.60;0.60;;;;;;;6.50;100.00;98878.75;5091804;28;20170;-79
2022/11/23 07:19:52;;;;;;;1.50;1.43;;;;;;;6.52;100.00;98893.59;5091826;28;20170;-79
2022/11/23 07:22:17;;;;;;;0.13;0.13;;;;;;;6.54;100.00;98898.69;5090492;28;20200;-80
2022/11/23 07:24:43;;;;;;;0.00;0.00;;;;;;;6.52;100.00;98881.94;5091581;28;20242;-79
2022/11/23 07:27:08;;;;;;;0.23;0.23;;;;;;;6.50;100.00;98884.97;5090380;28;20533;-79
2022/11/23 07:29:33;;;;;;;0.60;0.33;;;;;;;6.48;100.00;98891.84;5091739;28;20257;-80
2022/11/23 07:31:59;;;;;;;4.10;0.80;;;;;;;6.47;100.00;98890.25;5089455;28;20637;-78
2022/11/23 07:34:26;;;;;;;0.50;0.20;;;;;;;6.47;100.00;98895.66;5091624;28;20211;-79
2022/11/23 07:36:52;;;;;;;0.00;0.00;;;;;;;6.46;100.00;98892.16;5091570;28;20170;-80
2022/11/23 07:39:17;;;;;;;0.00;0.00;;;;;;;6.51;100.00;98891.22;5091441;28;20588;-81
2022/11/23 07:41:42;;;;;;;0.73;0.73;;;;;;;6.54;100.00;98898.69;5091771;28;20210;-82
2022/11/23 07:44:08;;;;;;;0.83;0.80;;;;;;;6.51;100.00;98897.44;5089830;28;20181;-82
2022/11/23 07:46:33;;;;;;;0.10;0.10;;;;;;;6.56;100.00;98899.16;5091443;28;20231;-82
2022/11/23 07:49:01;;;;;;;0.57;0.57;;;;;;;6.57;100.00;98893.41;5091903;28;20219;-82
2022/11/23 07:51:27;;;;;;;0.43;0.43;;;;;;;6.59;100.00;98903.16;5090026;28;20166;-82
2022/11/23 07:53:52;;;;;;;0.43;0.43;;;;;;;6.62;100.00;98903.28;5091093;28;20192;-82
2022/11/23 07:56:17;;;;;;;7.40;1.50;;;;;;;6.67;100.00;98907.78;5091203;28;20178;-82
2022/11/23 07:58:42;;;;;;;0.10;0.10;;;;;;;6.70;100.00;98905.19;5091087;28;20197;-82
2022/11/23 08:01:08;;;;;;;0.73;0.70;;;;;;;6.73;100.00;98906.47;5091567;28;20257;-83
2022/11/23 08:03:33;;;;;;;2.73;0.83;;;;;;;6.78;100.00;98907.09;5091463;28;20165;-83
2022/11/23 08:05:58;;;;;;;0.00;0.00;;;;;;;6.80;99.88;98910.28;5091143;28;20525;-82
2022/11/23 08:08:24;;;;;;;0.47;0.47;;;;;;;6.85;99.66;98907.41;5089730;28;20193;-82
2022/11/23 08:10:49;;;;;;;0.00;0.00;;;;;;;6.93;99.72;98908.47;5091184;28;20185;-82
2022/11/23 08:13:14;;;;;;;0.67;0.17;;;;;;;6.98;99.31;98911.03;5089396;28;20211;-82
2022/11/23 08:15:40;;;;;;;0.10;0.10;;;;;;;7.02;98.84;98916.59;5091286;28;20812;-82
2022/11/23 08:18:05;;;;;;;0.70;0.70;;;;;;;7.08;98.42;98918.00;5090839;28;20197;-82
2022/11/23 08:20:32;;;;;;;4.23;1.23;;;;;;;7.11;98.32;98920.88;5090058;28;20178;-83
2022/11/23 08:22:57;;;;;;;1.60;0.73;;;;;;;7.15;97.86;98915.59;5090693;28;20173;-83
2022/11/23 08:25:24;;;;;;;6.27;0.67;;;;;;;7.15;97.98;98921.03;5091234;28;20189;-82
2022/11/23 08:27:57;;;;;;;0.37;0.37;;;;;;;7.21;97.30;98908.03;5090813;28;20572;-82
2022/11/23 08:30:24;;;;;;;10.83;1.07;;;;;;;7.20;96.91;98912.69;5090739;28;20185;-82
2022/11/23 08:32:49;;;;;;;0.00;0.00;;;;;;;7.19;97.16;98915.72;5090697;28;20173;-83
2022/11/23 08:35:14;;;;;;;0.03;0.03;;;;;;;7.30;97.31;98909.59;5072929;28;20182;-82
2022/11/23 08:37:40;;;;;;;0.00;0.00;;;;;;;7.29;96.64;98918.09;5070481;28;20179;-82
2022/11/23 08:40:06;;;;;;;0.00;0.00;;;;;;;7.39;96.34;98921.22;5070554;28;20170;-82
2022/11/23 08:42:31;;;;;;;0.00;0.00;;;;;;;7.42;95.50;98922.50;5071753;28;20277;-82
2022/11/23 08:44:58;;;;;;;1.20;0.60;;;;;;;7.49;94.87;98914.63;5091838;28;20239;-81
2022/11/23 08:47:24;;;;;;;0.10;0.10;;;;;;;7.47;94.49;98925.00;5094885;28;20507;-79
2022/11/23 08:49:49;;;;;;;0.10;0.10;;;;;;;7.47;94.81;98919.59;5094816;28;20271;-78
2022/11/23 08:52:15;;;;;;;0.00;0.00;;;;;;;7.56;95.25;98919.53;5094676;28;20177;-79
2022/11/23 08:54:40;;;;;;;0.10;0.10;;;;;;;7.51;94.86;98917.78;5094735;28;20174;-79
2022/11/23 08:57:05;;;;;;;0.00;0.00;;;;;;;7.50;95.03;98916.19;5094871;28;20165;-78
2022/11/23 08:59:31;;;;;;;0.63;0.57;;;;;;;7.65;94.94;98918.34;5094572;28;20200;-79
2022/11/23 09:01:56;;;;;;;4.90;1.07;;;;;;;7.71;93.75;98921.69;5094808;28;20223;-79
2022/11/23 09:04:21;;;;;;;0.20;0.20;;;;;;;7.74;94.04;98926.47;5094277;28;20173;-78
2022/11/23 09:06:47;;;;;;;0.10;0.10;;;;;;;7.74;93.97;98924.53;5094770;28;20534;-79
2022/11/23 09:09:12;;;;;;;0.00;0.00;;;;;;;7.78;93.37;98929.31;5094664;28;20528;-79
2022/11/23 09:11:37;;;;;;;0.47;0.47;;;;;;;7.73;93.97;98933.03;5094598;28;20182;-79
2022/11/23 09:14:02;;;;;;;0.00;0.00;;;;;;;7.83;93.00;98934.56;5094140;28;20237;-82
2022/11/23 09:16:28;;;;;;;0.00;0.00;;;;;;;7.85;92.45;98932.31;5093242;28;20184;-90
2022/11/23 09:18:56;;;;;;;0.00;0.00;;;;;;;7.81;93.16;98923.22;5093235;28;20206;-78
2022/11/23 09:21:22;;;;;;;3.07;0.70;;;;;;;7.88;92.79;98932.44;5094285;28;20182;-79
2022/11/23 09:23:47;;;;;;;0.10;0.10;;;;;;;7.94;92.89;98933.03;5093875;28;20541;-79
2022/11/23 09:26:12;;;;;;;2.23;0.77;;;;;;;7.99;92.25;98944.53;5094042;28;20166;-79
2022/11/23 09:28:38;;;;;;;0.20;0.17;;;;;;;8.01;92.12;98941.47;5094098;28;20177;-80
2022/11/23 09:31:03;;;;;;;4.90;1.63;;;;;;;8.04;92.00;98938.88;5094077;28;20170;-79
2022/11/23 09:33:29;;;;;;;0.30;0.30;;;;;;;8.07;91.51;98942.84;5093899;28;20685;-80
2022/11/23 09:35:59;;;;;;;0.00;0.00;;;;;;;8.02;91.73;98940.34;5093883;28;20181;-80
2022/11/23 09:38:24;;;;;;;0.00;0.00;;;;;;;8.03;91.53;98947.38;5094153;28;20210;-80
2022/11/23 09:41:04;;;;;;;0.43;0.43;;;;;;;8.13;91.60;98948.91;5092483;28;20173;-80
2022/11/23 09:43:59;;;;;;;1.03;0.90;;;;;;;8.10;91.68;98939.50;5093522;28;20608;-80
2022/11/23 09:46:38;;;;;;;0.00;0.00;;;;;;;8.14;91.91;98950.50;5085737;28;20193;-79
2022/11/23 09:49:16;;;;;;;0.20;0.20;;;;;;;8.21;92.21;98948.84;5073602;28;20656;-79
2022/11/23 09:51:43;;;;;;;0.00;0.00;;;;;;;8.21;91.50;98946.09;5073644;28;20170;-79
2022/11/23 09:54:14;;;;;;;0.00;0.00;;;;;;;8.24;91.49;98948.16;5070751;28;20201;-79
2022/11/23 09:56:41;;;;;;;18.47;1.17;;;;;;;8.24;91.18;98950.88;5073454;28;20175;-78
2022/11/23 09:59:30;;;;;;;0.10;0.00;;;;;;;8.31;90.99;98950.38;5071623;28;20356;-77
2022/11/23 10:01:56;;;;;;;0.20;0.20;;;;;;;8.29;90.01;98950.69;5071628;28;20186;-78
2022/11/23 10:04:23;;;;;;;1.07;1.07;;;;;;;8.37;90.66;98950.97;5072277;28;20182;-78
2022/11/23 10:07:44;;;;;;;0.00;0.00;;;;;;;8.34;90.10;98945.06;5071415;28;20232;-79
2022/11/23 10:10:36;;;;;;;0.90;0.70;;;;;;;8.42;90.10;98959.75;5060102;28;20445;-78
2022/11/23 10:13:23;;;;;;;0.07;0.07;;;;;;;8.45;89.47;98945.47;5071024;28;20179;-79
2022/11/23 10:16:08;;;;;;;0.00;0.00;;;;;;;8.44;89.59;98954.75;5072476;28;20190;-78
2022/11/23 10:18:56;;;;;;;0.83;0.40;;;;;;;8.49;89.96;98951.81;5072451;28;20202;-79
2022/11/23 10:21:36;;;;;;;0.13;0.00;;;;;;;8.47;89.99;98964.97;5072313;28;20178;-79
2022/11/23 10:24:07;;;;;;;1.30;1.30;;;;;;;8.48;89.87;98965.78;5072015;28;20170;-78
2022/11/23 10:26:37;;;;;;;0.00;0.00;;;;;;;8.53;89.69;98962.84;5070904;28;20657;-78
2022/11/23 10:29:28;;;;;;;0.40;0.40;;;;;;;8.55;88.74;98955.94;5072337;28;20174;-78
2022/11/23 10:31:53;;;;;;;0.77;0.77;;;;;;;8.58;89.12;98968.09;5072150;28;20171;-78
2022/11/23 10:35:01;;;;;;;0.00;0.00;;;;;;;8.55;89.08;98966.03;5071838;28;20316;-79
2022/11/23 10:37:26;;;;;;;0.00;0.00;;;;;;;8.62;89.21;98963.56;5071980;28;20385;-79
2022/11/23 10:39:51;;;;;;;0.00;0.00;;;;;;;8.62;89.33;98969.00;5072179;28;20563;-79
2022/11/23 10:42:24;;;;;;;0.00;0.00;;;;;;;8.67;89.08;98966.06;5071912;28;20216;-80
2022/11/23 10:44:50;;;;;;;0.00;0.00;;;;;;;8.68;88.74;98964.13;5071702;28;20223;-80
2022/11/23 10:47:34;;;;;;;0.00;0.00;;;;;;;8.76;88.40;98969.50;5071739;28;20179;-80
2022/11/23 10:49:59;;;;;;;0.00;0.00;;;;;;;8.81;88.35;98966.56;5071756;28;20179;-80
2022/11/23 10:52:31;;;;;;;0.00;0.00;;;;;;;8.84;87.73;98967.84;5071722;28;20273;-79
2022/11/23 10:55:00;;;;;;;0.00;0.00;;;;;;;8.78;87.87;98969.97;5071959;28;20183;-80
2022/11/23 10:57:41;;;;;;;0.10;0.03;;;;;;;8.72;87.68;98967.81;5070202;28;20179;-79
2022/11/23 11:00:16;;;;;;;0.00;0.00;;;;;;;8.82;87.32;98962.72;5070392;28;20290;-84
2022/11/23 11:02:43;;;;;;;0.00;0.00;;;;;;;8.83;87.44;98964.34;5069906;28;20231;-84
2022/11/23 11:05:31;;;;;;;0.07;0.07;;;;;;;8.82;86.94;98962.72;5071233;28;20171;-86
2022/11/23 11:08:00;;;;;;;0.00;0.00;;;;;;;8.85;87.06;98959.34;5070176;28;20182;-85
2022/11/23 11:10:38;;;;;;;0.00;0.00;;;;;;;8.86;87.52;98971.81;5071594;28;20198;-83
2022/11/23 11:13:31;;;;;;;0.00;0.00;;;;;;;8.91;86.82;98960.72;5071821;28;20225;-83
2022/11/23 11:16:01;;;;;;;0.10;0.07;;;;;;;8.94;86.64;98962.75;5065071;28;20182;-82
2022/11/23 11:18:29;;;;;;;0.00;0.00;;;;;;;8.89;85.65;98954.81;5071621;28;20206;-84
2022/11/23 11:20:57;;;;;;;0.07;0.07;;;;;;;8.93;85.58;98963.09;5070398;28;20202;-83
2022/11/23 11:23:24;;;;;;;1.27;0.43;;;;;;;8.93;85.74;98957.66;5069847;28;20206;-83
2022/11/23 11:26:00;;;;;;;14.53;1.33;;;;;;;8.89;85.39;98957.53;5071410;28;20639;-82
2022/11/23 11:28:30;;;;;;;0.00;0.00;;;;;;;8.90;85.33;98961.03;5071502;28;20175;-82
2022/11/23 11:31:26;;;;;;;4.70;0.30;;;;;;;8.86;85.74;98957.41;5071495;28;20936;-82
2022/11/23 11:34:26;;;;;;;3.00;0.53;;;;;;;8.92;85.77;98948.69;5071171;28;20652;-81
2022/11/23 11:36:52;;;;;;;0.77;0.57;;;;;;;8.92;85.98;98947.88;5060221;28;20194;-82
2022/11/23 11:39:28;;;;;;;0.00;0.00;;;;;;;8.92;86.27;98951.41;5071162;28;20206;-82